General Aviation Weather

Text Reports

Enter one or more of the following location identifiers separated by a space:

Zip Code, Four-Character ICAO or Three-Character IATA airport codes.

METAR - Aviation Routine Weather Report
KFFM - Fergus Falls, Minnesota
Updated at 2:34 AM GMT on February 12, 2016 (8:34 PM CST):
METAR KFFM 120234Z AUTO 33007KT 10SM OVC040 M11/M13 A3027 RMK AO2
TAF - Terminal Area Forecast
KFFM - Fergus Falls, Minnesota
Updated at 2:34 AM GMT on February 12, 2016 (8:34 PM CST):
No TAF is currently available for this location.
Decoded:
No decoded TAF is available.
PIREP - Pilot Weather Report
KFFM - Fergus Falls, Minnesota
Updated at 2:34 AM GMT on February 12, 2016 (8:34 PM CST):
No PIREP is currently available for this location.
AIRMET - Airmens Meteorological Information
KFFM - Fergus Falls, Minnesota
Updated at 2:34 AM GMT on February 12, 2016 (8:34 PM CST):
No AIRMET is currently available for this location.
SIGMET - Significant Meteorological Information
KFFM - Fergus Falls, Minnesota
Updated at 2:34 AM GMT on February 12, 2016 (8:34 PM CST):
No SIGMET is currently available for this location.
NOTAM - Notice to Airmen
KFFM - Fergus Falls, Minnesota
Updated at 2:34 AM GMT on February 12, 2016 (8:34 PM CST):
No NOTAM is currently available for this location.
Forecast Area
KFFM - Fergus Falls, Minnesota
Updated at 2:34 AM GMT on February 12, 2016 (8:34 PM CST):
No NOTAM is currently available for this location.
Aviation Weather Maps